createdAt,value
2018-04-22T00:01:11.309Z,67.10
2018-04-22T00:03:38.896Z,67.40
2018-04-22T00:06:06.565Z,67.20
2018-04-22T00:08:34.943Z,67.50
2018-04-22T00:11:03.767Z,67.20
2018-04-22T00:13:31.493Z,67.20
2018-04-22T00:15:59.836Z,67.90
2018-04-22T00:18:27.426Z,67.70
2018-04-22T00:20:55.793Z,67.00
2018-04-22T00:23:23.391Z,67.40
2018-04-22T00:25:50.953Z,68.10
2018-04-22T00:28:18.548Z,68.30
2018-04-22T00:30:46.128Z,68.20
2018-04-22T00:33:13.716Z,69.00
2018-04-22T00:35:42.038Z,69.30
2018-04-22T00:38:09.729Z,69.30
2018-04-22T00:40:37.337Z,69.10
2018-04-22T00:43:04.905Z,69.20
2018-04-22T00:45:32.516Z,69.40
2018-04-22T00:48:00.867Z,70.10
2018-04-22T00:50:28.468Z,70.10
2018-04-22T00:52:56.987Z,70.40
2018-04-22T00:55:24.575Z,70.40
2018-04-22T00:57:52.174Z,70.70
2018-04-22T01:00:19.792Z,70.70
2018-04-22T01:02:47.474Z,70.90
2018-04-22T01:05:15.821Z,71.40
2018-04-22T01:10:18.271Z,71.70
2018-04-22T01:12:45.833Z,71.40
2018-04-22T01:15:13.396Z,71.60
2018-04-22T01:17:41.157Z,71.70
2018-04-22T01:20:08.753Z,72.60
2018-04-22T01:22:36.378Z,72.20
2018-04-22T01:25:04.132Z,72.40
2018-04-22T01:27:31.737Z,72.20
2018-04-22T01:29:59.317Z,72.20
2018-04-22T01:32:27.798Z,72.90
2018-04-22T01:34:56.121Z,73.50
2018-04-22T01:37:23.778Z,73.40
2018-04-22T01:39:51.341Z,73.00
2018-04-22T01:42:19.056Z,73.20
2018-04-22T01:44:47.417Z,73.90
2018-04-22T01:47:15.139Z,73.90
2018-04-22T01:49:42.793Z,73.70
2018-04-22T01:52:10.500Z,73.70
2018-04-22T01:54:38.216Z,73.70
2018-04-22T01:57:05.816Z,74.50
2018-04-22T01:59:33.374Z,73.80
2018-04-22T02:02:00.966Z,74.00
2018-04-22T02:04:29.312Z,74.40
2018-04-22T02:06:56.896Z,74.30
2018-04-22T02:09:25.229Z,74.60
2018-04-22T02:11:52.917Z,74.60
2018-04-22T02:14:21.249Z,75.20
2018-04-22T02:16:48.934Z,75.20
2018-04-22T02:19:16.497Z,74.90
2018-04-22T02:21:44.090Z,75.20
2018-04-22T02:24:12.426Z,75.80
2018-04-22T02:26:40.049Z,75.20
2018-04-22T02:29:07.749Z,74.40
2018-04-22T02:31:35.314Z,74.80
2018-04-22T02:34:02.905Z,75.00
2018-04-22T02:36:31.240Z,75.00
2018-04-22T02:38:58.840Z,75.00
2018-04-22T02:41:26.421Z,74.80
2018-04-22T02:43:54.009Z,76.00
2018-04-22T02:46:21.569Z,74.00
2018-04-22T02:48:49.317Z,73.60
2018-04-22T02:51:16.869Z,72.30
2018-04-22T02:53:44.472Z,73.20
2018-04-22T02:56:12.287Z,74.60
2018-04-22T02:58:39.885Z,75.10
2018-04-22T03:01:07.467Z,75.90
2018-04-22T03:03:35.836Z,79.90
2018-04-22T03:06:04.185Z,75.90
2018-04-22T03:08:31.744Z,75.90
2018-04-22T03:10:59.330Z,76.00
2018-04-22T03:13:27.665Z,75.90
2018-04-22T03:15:55.248Z,75.90
2018-04-22T03:18:22.808Z,76.10
2018-04-22T03:20:50.522Z,75.90
2018-04-22T03:23:18.081Z,75.90
2018-04-22T03:25:45.679Z,75.40
2018-04-22T03:28:13.269Z,75.40
2018-04-22T03:30:41.636Z,75.60
2018-04-22T03:33:10.163Z,75.40
2018-04-22T03:35:37.737Z,75.40
2018-04-22T03:38:05.428Z,75.50
2018-04-22T03:40:33.089Z,76.00
2018-04-22T03:43:00.678Z,75.60
2018-04-22T03:45:28.237Z,75.60
2018-04-22T03:47:55.965Z,75.30
2018-04-22T03:50:23.532Z,76.00
2018-04-22T03:52:51.133Z,76.80
2018-04-22T03:55:18.693Z,77.20
2018-04-22T03:57:46.290Z,76.60
2018-04-22T04:00:13.849Z,77.30
2018-04-22T04:02:41.454Z,77.70
2018-04-22T04:05:09.051Z,77.50
2018-04-22T04:07:36.900Z,77.50
2018-04-22T04:10:04.541Z,76.80
2018-04-22T04:12:32.149Z,76.70
2018-04-22T04:15:00.482Z,77.90
2018-04-22T04:17:28.209Z,77.20
2018-04-22T04:20:08.745Z,78.70
2018-04-22T04:22:43.402Z,78.00
2018-04-22T04:28:11.936Z,77.20
2018-04-22T04:30:39.565Z,76.50
2018-04-22T04:33:07.097Z,76.50
2018-04-22T04:35:34.704Z,77.00
2018-04-22T04:38:02.348Z,77.80
2018-04-22T04:40:29.938Z,77.60
2018-04-22T04:42:57.515Z,77.50
2018-04-22T04:45:25.134Z,78.50
2018-04-22T04:47:52.756Z,78.30
2018-04-22T04:50:20.341Z,78.80
2018-04-22T04:52:48.674Z,78.70
2018-04-22T04:55:16.366Z,78.60
2018-04-22T04:57:44.722Z,78.60
2018-04-22T05:00:12.283Z,78.40
2018-04-22T05:02:40.049Z,79.30
2018-04-22T05:05:07.618Z,78.10
2018-04-22T05:07:35.973Z,77.20
2018-04-22T05:10:03.537Z,77.20
2018-04-22T05:12:31.181Z,78.30
2018-04-22T05:14:58.821Z,78.60
2018-04-22T05:17:26.418Z,77.10
2018-04-22T05:19:54.206Z,76.30
2018-04-22T05:22:22.569Z,75.90
2018-04-22T05:24:50.128Z,75.80
2018-04-22T05:27:17.737Z,76.20
2018-04-22T05:29:45.293Z,76.40
2018-04-22T05:32:12.854Z,77.30
2018-04-22T05:34:40.507Z,76.20
2018-04-22T05:37:08.117Z,76.80
2018-04-22T05:39:36.654Z,76.30
2018-04-22T05:42:04.229Z,76.30
2018-04-22T05:44:31.927Z,74.90
2018-04-22T05:47:00.364Z,74.40
2018-04-22T05:49:27.945Z,74.30
2018-04-22T05:51:55.525Z,74.30
2018-04-22T05:54:23.882Z,75.10
2018-04-22T05:56:51.434Z,74.50
2018-04-22T05:59:19.128Z,74.30
2018-04-22T06:01:47.522Z,72.50
2018-04-22T06:04:15.229Z,72.50
2018-04-22T06:06:42.793Z,72.50
2018-04-22T06:09:10.537Z,73.60
2018-04-22T06:11:38.098Z,72.30
2018-04-22T06:14:05.769Z,72.80
2018-04-22T06:16:33.456Z,73.00
2018-04-22T06:19:01.038Z,71.30
2018-04-22T06:21:28.594Z,72.60
2018-04-22T06:23:56.986Z,70.20
2018-04-22T06:26:24.653Z,70.20
2018-04-22T06:28:52.353Z,69.60
2018-04-22T06:31:19.982Z,69.40
2018-04-22T06:33:47.550Z,69.10
2018-04-22T06:36:15.191Z,70.30
2018-04-22T06:38:42.753Z,70.60
2018-04-22T06:41:10.419Z,68.50
2018-04-22T06:43:38.021Z,68.90
2018-04-22T06:46:05.686Z,69.30
2018-04-22T06:48:33.359Z,67.60
2018-04-22T06:51:01.681Z,67.10
2018-04-22T06:53:29.298Z,67.10
2018-04-22T06:55:57.661Z,67.40
2018-04-22T06:58:25.269Z,67.30
2018-04-22T07:00:52.849Z,67.00
2018-04-22T07:03:20.449Z,66.10
2018-04-22T07:05:48.793Z,65.10
2018-04-22T07:08:16.529Z,65.00
2018-04-22T07:10:44.093Z,63.90
2018-04-22T07:13:11.790Z,63.50
2018-04-22T07:15:39.475Z,62.50
2018-04-22T07:18:07.823Z,60.10
2018-04-22T07:20:35.401Z,60.10
2018-04-22T07:23:03.784Z,59.50
2018-04-22T07:25:32.123Z,55.90
2018-04-22T07:27:59.686Z,55.80
2018-04-22T07:30:27.387Z,53.10
2018-04-22T07:32:55.733Z,53.30
2018-04-22T07:35:23.342Z,53.30
2018-04-22T07:37:50.901Z,54.10
2018-04-22T07:40:18.678Z,51.80
2018-04-22T07:42:46.270Z,52.20
2018-04-22T07:45:13.894Z,52.90
2018-04-22T07:47:41.480Z,51.70
2018-04-22T07:50:09.072Z,52.20
2018-04-22T07:52:37.400Z,51.20
2018-04-22T07:55:04.989Z,51.20
2018-04-22T07:57:32.566Z,53.10
2018-04-22T08:00:01.141Z,54.00
2018-04-22T08:02:29.554Z,51.30
2018-04-22T08:04:57.158Z,51.30
2018-04-22T08:07:25.489Z,48.10
2018-04-22T08:09:53.206Z,48.20
2018-04-22T08:12:20.773Z,47.00
2018-04-22T08:14:49.243Z,44.00
2018-04-22T08:17:16.827Z,43.90
2018-04-22T08:19:45.197Z,44.30
2018-04-22T08:22:13.547Z,43.50
2018-04-22T08:24:41.146Z,43.40
2018-04-22T08:27:08.946Z,43.40
2018-04-22T08:29:36.541Z,45.20
2018-04-22T08:32:04.136Z,44.90
2018-04-22T08:34:31.713Z,46.20
2018-04-22T08:36:59.318Z,44.20
2018-04-22T08:39:26.877Z,45.00
2018-04-22T08:41:54.493Z,45.60
2018-04-22T08:44:22.096Z,46.10
2018-04-22T08:46:50.661Z,44.60
2018-04-22T08:49:18.264Z,43.80
2018-04-22T08:51:45.891Z,43.40
2018-04-22T08:54:13.505Z,42.50
2018-04-22T08:56:41.192Z,41.70
2018-04-22T08:59:08.800Z,41.50
2018-04-22T09:01:36.371Z,41.70
2018-04-22T09:04:03.980Z,42.90
2018-04-22T09:06:31.557Z,40.30
2018-04-22T09:08:59.908Z,40.80
2018-04-22T09:11:27.505Z,40.70
2018-04-22T09:13:56.106Z,39.40
2018-04-22T09:16:23.724Z,39.40
2018-04-22T09:18:51.389Z,42.10
2018-04-22T09:21:19.846Z,41.20
2018-04-22T09:23:47.544Z,41.20
2018-04-22T09:26:15.919Z,41.00
2018-04-22T09:28:44.264Z,41.30
2018-04-22T09:31:11.860Z,41.30
2018-04-22T09:33:39.442Z,41.00
2018-04-22T09:36:07.034Z,41.70
2018-04-22T09:38:34.614Z,42.10
2018-04-22T09:41:02.285Z,42.00
2018-04-22T09:43:30.820Z,41.30
2018-04-22T09:45:58.503Z,41.10
2018-04-22T09:48:26.070Z,37.20
2018-04-22T09:50:53.633Z,36.30
2018-04-22T09:53:21.405Z,35.60
2018-04-22T09:55:48.935Z,34.50
2018-04-22T09:58:16.619Z,40.00
2018-04-22T10:00:47.122Z,36.80
2018-04-22T10:03:14.890Z,38.60
2018-04-22T10:05:48.212Z,41.00
2018-04-22T10:08:16.689Z,41.40
2018-04-22T10:10:45.128Z,38.80
2018-04-22T10:13:12.692Z,38.50
2018-04-22T10:15:40.361Z,36.60
2018-04-22T10:18:07.921Z,39.10
2018-04-22T10:20:35.525Z,40.00
2018-04-22T10:23:03.254Z,40.00
2018-04-22T10:25:30.824Z,38.90
2018-04-22T10:27:59.183Z,38.30
2018-04-22T10:30:27.511Z,36.60
2018-04-22T10:32:55.261Z,36.50
2018-04-22T10:35:22.833Z,35.40
2018-04-22T10:37:50.472Z,38.30
2018-04-22T10:40:18.317Z,38.00
2018-04-22T10:42:45.882Z,39.00
2018-04-22T10:45:14.222Z,38.00
2018-04-22T10:47:41.913Z,38.50
2018-04-22T10:50:09.626Z,38.00
2018-04-22T10:52:37.236Z,39.00
2018-04-22T10:55:05.593Z,41.90
2018-04-22T10:57:33.173Z,41.80
2018-04-22T11:00:01.744Z,38.00
2018-04-22T11:02:29.309Z,37.80
2018-04-22T11:04:56.906Z,36.20
2018-04-22T11:07:24.471Z,37.10
2018-04-22T11:09:52.105Z,37.10
2018-04-22T11:12:20.440Z,38.80
2018-04-22T11:14:48.006Z,38.90
2018-04-22T11:17:16.452Z,39.40
2018-04-22T11:19:44.031Z,39.40
2018-04-22T11:22:11.626Z,38.10
2018-04-22T11:24:40.145Z,38.40
2018-04-22T11:27:07.713Z,38.40
2018-04-22T11:29:35.305Z,38.50
2018-04-22T11:32:02.893Z,37.60
2018-04-22T11:34:31.499Z,38.70
2018-04-22T11:36:59.097Z,38.60
2018-04-22T11:39:27.438Z,38.90
2018-04-22T11:41:55.037Z,38.10
2018-04-22T11:44:22.653Z,37.60
2018-04-22T11:46:50.392Z,37.60
2018-04-22T11:49:18.767Z,38.30
2018-04-22T11:51:47.108Z,38.60
2018-04-22T11:54:14.713Z,38.50
2018-04-22T11:56:42.274Z,39.40
2018-04-22T11:59:09.869Z,38.20
2018-04-22T12:01:37.441Z,38.00
2018-04-22T12:04:05.043Z,37.70
2018-04-22T12:06:33.413Z,37.40
2018-04-22T12:09:01.924Z,37.20
2018-04-22T12:11:29.506Z,37.10
2018-04-22T12:13:57.102Z,37.30
2018-04-22T12:16:25.449Z,37.00
2018-04-22T12:18:53.049Z,37.20
2018-04-22T12:21:21.501Z,38.50
2018-04-22T12:23:49.096Z,38.60
2018-04-22T12:26:16.751Z,37.50
2018-04-22T12:28:45.144Z,37.80
2018-04-22T12:31:12.769Z,37.70
2018-04-22T12:33:41.377Z,37.80
2018-04-22T12:36:09.090Z,37.70
2018-04-22T12:38:36.749Z,37.80
2018-04-22T12:41:04.329Z,38.10
2018-04-22T12:43:31.899Z,37.40
2018-04-22T12:46:00.310Z,36.70
2018-04-22T12:48:27.903Z,36.60
2018-04-22T12:50:55.505Z,36.70
2018-04-22T12:53:23.937Z,37.70
2018-04-22T12:55:51.514Z,37.60
2018-04-22T12:58:20.637Z,40.80
2018-04-22T13:00:48.957Z,37.80
2018-04-22T13:03:16.561Z,37.80
2018-04-22T13:05:44.992Z,34.50
2018-04-22T13:08:12.634Z,35.10
2018-04-22T13:10:40.498Z,36.50
2018-04-22T13:13:08.157Z,34.30
2018-04-22T13:15:35.710Z,35.10
2018-04-22T13:18:03.308Z,35.10
2018-04-22T13:20:30.965Z,36.20
2018-04-22T13:22:58.725Z,34.50
2018-04-22T13:25:26.279Z,35.20
2018-04-22T13:27:54.033Z,35.10
2018-04-22T13:30:21.580Z,35.40
2018-04-22T13:32:49.247Z,36.50
2018-04-22T13:35:16.813Z,37.00
2018-04-22T13:37:44.417Z,35.50
2018-04-22T13:40:12.885Z,37.30
2018-04-22T13:42:40.453Z,36.80
2018-04-22T13:45:08.043Z,38.00
2018-04-22T13:47:35.743Z,36.00
2018-04-22T13:50:03.478Z,35.50
2018-04-22T13:52:31.047Z,35.30
2018-04-22T13:54:58.664Z,35.50
2018-04-22T13:57:27.020Z,37.10
2018-04-22T13:59:54.776Z,37.10
2018-04-22T14:02:22.337Z,36.60
2018-04-22T14:04:50.050Z,36.10
2018-04-22T14:07:17.646Z,34.50
2018-04-22T14:09:45.270Z,33.90
2018-04-22T14:12:12.847Z,35.60
2018-04-22T14:14:40.700Z,34.80
2018-04-22T14:17:08.269Z,36.90
2018-04-22T14:19:35.976Z,35.60
2018-04-22T14:22:04.425Z,35.40
2018-04-22T14:24:32.008Z,35.30
2018-04-22T14:26:59.585Z,35.30
2018-04-22T14:29:27.936Z,35.30
2018-04-22T14:31:55.536Z,35.40
2018-04-22T14:34:23.101Z,34.60
2018-04-22T14:36:50.690Z,36.80
2018-04-22T14:39:18.260Z,37.20
2018-04-22T14:41:45.849Z,35.00
2018-04-22T14:44:26.267Z,34.00
2018-04-22T14:46:53.885Z,34.00
2018-04-22T14:49:21.721Z,33.30
2018-04-22T14:51:50.082Z,34.40
2018-04-22T14:54:17.693Z,34.30
2018-04-22T14:56:45.285Z,34.90
2018-04-22T14:59:12.867Z,34.90
2018-04-22T15:01:40.455Z,35.00
2018-04-22T15:04:08.066Z,35.00
2018-04-22T15:06:35.634Z,34.70
2018-04-22T15:09:03.215Z,34.60
2018-04-22T15:11:31.541Z,35.40
2018-04-22T15:13:59.193Z,35.40
2018-04-22T15:16:26.759Z,33.30
2018-04-22T15:18:54.353Z,34.60
2018-04-22T15:21:22.045Z,36.80
2018-04-22T15:23:50.465Z,32.90
2018-04-22T15:26:18.044Z,33.50
2018-04-22T15:28:45.722Z,33.80
2018-04-22T15:31:14.101Z,34.40
2018-04-22T15:33:42.482Z,32.20
2018-04-22T15:36:10.825Z,32.20
2018-04-22T15:38:38.446Z,32.20
2018-04-22T15:41:06.030Z,33.00
2018-04-22T15:43:33.739Z,33.60
2018-04-22T15:46:02.072Z,33.70
2018-04-22T15:48:29.776Z,33.70
2018-04-22T15:50:58.133Z,31.30
2018-04-22T15:53:25.698Z,31.30
2018-04-22T15:55:53.309Z,30.20
2018-04-22T15:58:20.926Z,31.70
2018-04-22T16:00:48.531Z,30.10
2018-04-22T16:03:16.188Z,31.30
2018-04-22T16:05:43.781Z,30.20
2018-04-22T16:08:11.537Z,30.50
2018-04-22T16:10:39.107Z,31.20
2018-04-22T16:13:06.685Z,33.40
2018-04-22T16:15:35.121Z,33.80
2018-04-22T16:18:02.702Z,33.70
2018-04-22T16:20:30.269Z,32.80
2018-04-22T16:22:57.844Z,33.80
2018-04-22T16:25:26.177Z,34.20
2018-04-22T16:27:53.938Z,34.20
2018-04-22T16:30:21.488Z,33.40
2018-04-22T16:32:49.187Z,33.00
2018-04-22T16:35:16.948Z,34.80
2018-04-22T16:37:44.476Z,34.00
2018-04-22T16:40:12.142Z,33.40
2018-04-22T16:42:39.838Z,32.80
2018-04-22T16:45:07.448Z,34.50
2018-04-22T16:47:35.039Z,34.10
2018-04-22T16:50:02.653Z,34.00
2018-04-22T16:52:30.389Z,33.70
2018-04-22T16:54:58.725Z,33.90
2018-04-22T16:57:26.337Z,33.80
2018-04-22T16:59:53.926Z,34.00
2018-04-22T17:02:21.600Z,34.70
2018-04-22T17:04:49.218Z,35.30
2018-04-22T17:07:16.790Z,34.20
2018-04-22T17:09:44.609Z,34.90
2018-04-22T17:12:12.185Z,34.80
2018-04-22T17:14:40.557Z,35.60
2018-04-22T17:17:08.894Z,35.20
2018-04-22T17:19:36.515Z,35.10
2018-04-22T17:22:04.225Z,37.10
2018-04-22T17:24:31.813Z,37.40
2018-04-22T17:27:00.154Z,38.30
2018-04-22T17:29:27.757Z,38.30
2018-04-22T17:31:56.120Z,39.40
2018-04-22T17:34:23.887Z,39.40
2018-04-22T17:36:52.249Z,40.40
2018-04-22T17:39:19.835Z,39.80
2018-04-22T17:41:48.177Z,40.00
2018-04-22T17:44:15.853Z,40.00
2018-04-22T17:46:43.572Z,39.60
2018-04-22T17:49:11.153Z,39.10
2018-04-22T17:51:38.893Z,39.80
2018-04-22T17:54:06.486Z,42.00
2018-04-22T17:56:34.106Z,40.10
2018-04-22T17:59:01.686Z,41.00
2018-04-22T18:01:29.405Z,43.20
2018-04-22T18:03:57.030Z,42.90
2018-04-22T18:06:24.622Z,43.70
2018-04-22T18:08:52.429Z,44.00
2018-04-22T18:11:19.986Z,44.90
2018-04-22T18:13:47.625Z,43.40
2018-04-22T18:16:15.660Z,44.10
2018-04-22T18:18:43.278Z,43.80
2018-04-22T18:21:11.014Z,44.30
2018-04-22T18:23:38.609Z,43.60
2018-04-22T18:26:06.298Z,43.60
2018-04-22T18:28:34.849Z,39.70
2018-04-22T18:31:02.574Z,39.70
2018-04-22T18:33:30.201Z,40.20
2018-04-22T18:35:58.647Z,40.30
2018-04-22T18:38:26.239Z,40.30
2018-04-22T18:40:54.682Z,40.50
2018-04-22T18:43:22.278Z,40.40
2018-04-22T18:45:50.641Z,40.10
2018-04-22T18:48:18.389Z,40.10
2018-04-22T18:50:46.121Z,41.20
2018-04-22T18:53:13.829Z,40.40
2018-04-22T18:55:41.652Z,40.30
2018-04-22T18:58:09.225Z,40.20
2018-04-22T19:00:36.806Z,39.50
2018-04-22T19:03:04.384Z,40.00
2018-04-22T19:05:32.753Z,39.30
2018-04-22T19:08:01.133Z,38.10
2018-04-22T19:10:29.577Z,39.40
2018-04-22T19:12:57.147Z,39.30
2018-04-22T19:15:24.833Z,38.40
2018-04-22T19:17:53.200Z,37.80
2018-04-22T19:20:20.793Z,37.80
2018-04-22T19:22:48.441Z,39.00
2018-04-22T19:25:16.771Z,38.80
2018-04-22T19:27:44.393Z,38.80
2018-04-22T19:30:11.977Z,38.90
2018-04-22T19:32:39.564Z,39.00
2018-04-22T19:35:07.125Z,38.50
2018-04-22T19:37:34.790Z,39.00
2018-04-22T19:40:02.496Z,40.40
2018-04-22T19:42:30.126Z,39.80
2018-04-22T19:44:58.470Z,40.90
2018-04-22T19:47:26.173Z,41.00
2018-04-22T19:49:53.814Z,40.40
2018-04-22T19:52:22.234Z,41.70
2018-04-22T19:54:49.850Z,41.20
2018-04-22T19:57:18.441Z,42.20
2018-04-22T19:59:46.891Z,42.50
2018-04-22T20:02:14.475Z,42.40
2018-04-22T20:04:42.870Z,41.70
2018-04-22T20:07:10.463Z,41.70
2018-04-22T20:09:38.075Z,42.50
2018-04-22T20:12:06.410Z,42.30
2018-04-22T20:14:34.245Z,42.20
2018-04-22T20:17:01.829Z,43.50
2018-04-22T20:19:29.774Z,43.10
2018-04-22T20:21:57.518Z,42.70
2018-04-22T20:24:25.166Z,43.00
2018-04-22T20:26:52.744Z,43.80
2018-04-22T20:29:20.343Z,43.30
2018-04-22T20:31:48.004Z,43.70
2018-04-22T20:34:15.649Z,43.90
2018-04-22T20:36:43.222Z,43.60
2018-04-22T20:39:10.805Z,43.60
2018-04-22T20:41:38.442Z,43.80
2018-04-22T20:44:06.042Z,44.10
2018-04-22T20:46:34.447Z,43.90
2018-04-22T20:49:02.110Z,43.70
2018-04-22T20:51:29.713Z,44.00
2018-04-22T20:53:57.286Z,43.90
2018-04-22T20:56:24.875Z,43.70
2018-04-22T20:58:52.506Z,44.10
2018-04-22T21:01:20.226Z,44.60
2018-04-22T21:03:47.830Z,43.90
2018-04-22T21:06:16.161Z,45.90
2018-04-22T21:08:43.928Z,45.90
2018-04-22T21:11:11.469Z,45.10
2018-04-22T21:13:39.134Z,43.60
2018-04-22T21:16:06.842Z,44.20
2018-04-22T21:18:34.580Z,43.00
2018-04-22T21:21:02.144Z,42.90
2018-04-22T21:23:29.737Z,40.90
2018-04-22T21:25:58.282Z,41.90
2018-04-22T21:28:25.910Z,41.80
2018-04-22T21:30:53.498Z,41.80
2018-04-22T21:33:21.132Z,40.70
2018-04-22T21:35:48.841Z,39.60
2018-04-22T21:38:16.380Z,39.60
2018-04-22T21:40:44.029Z,41.00
2018-04-22T21:43:11.825Z,39.70
2018-04-22T21:45:39.393Z,39.70
2018-04-22T21:48:07.741Z,38.50
2018-04-22T21:50:35.421Z,38.40
2018-04-22T21:53:03.786Z,39.60
2018-04-22T21:55:31.361Z,39.60
2018-04-22T21:57:59.821Z,40.80
2018-04-22T22:00:27.411Z,40.70
2018-04-22T22:02:55.757Z,39.30
2018-04-22T22:05:23.485Z,39.30
2018-04-22T22:07:51.229Z,39.90
2018-04-22T22:10:18.834Z,39.60
2018-04-22T22:12:46.431Z,39.70
2018-04-22T22:15:14.758Z,42.10
2018-04-22T22:17:42.357Z,42.00
2018-04-22T22:20:10.828Z,41.90
2018-04-22T22:22:38.398Z,41.80
2018-04-22T22:25:06.773Z,42.00
2018-04-22T22:27:35.241Z,42.60
2018-04-22T22:30:02.962Z,42.60
2018-04-22T22:32:30.513Z,44.50
2018-04-22T22:34:58.110Z,44.50
2018-04-22T22:37:25.677Z,45.10
2018-04-22T22:39:53.429Z,46.00
2018-04-22T22:42:20.993Z,46.60
2018-04-22T22:44:48.668Z,47.10
2018-04-22T22:47:17.070Z,47.80
2018-04-22T22:49:44.686Z,47.50
2018-04-22T22:52:13.789Z,47.90
2018-04-22T22:54:41.381Z,47.80
2018-04-22T22:57:09.125Z,48.30
2018-04-22T22:59:37.470Z,45.70
2018-04-22T23:02:05.056Z,45.70
2018-04-22T23:04:33.448Z,43.90
2018-04-22T23:07:01.833Z,44.30
2018-04-22T23:09:29.388Z,44.20
2018-04-22T23:11:57.754Z,43.00
2018-04-22T23:14:26.069Z,43.00
2018-04-22T23:16:53.658Z,42.90
2018-04-22T23:19:21.357Z,43.10
2018-04-22T23:21:49.728Z,42.80
2018-04-22T23:24:18.044Z,42.70
2018-04-22T23:26:45.650Z,42.60
2018-04-22T23:29:13.989Z,44.00
2018-04-22T23:31:41.546Z,43.50
2018-04-22T23:34:09.389Z,42.40
2018-04-22T23:36:36.949Z,42.50
2018-04-22T23:39:04.546Z,42.90
2018-04-22T23:41:32.173Z,45.60
2018-04-22T23:43:59.753Z,48.00
2018-04-22T23:46:27.302Z,48.40
2018-04-22T23:48:54.902Z,49.00
2018-04-22T23:51:23.288Z,50.50
2018-04-22T23:53:51.653Z,50.20
2018-04-22T23:56:19.320Z,50.10
2018-04-22T23:58:47.072Z,50.20
